createdAt,value
2017-11-18T00:01:50.190Z,50.30
2017-11-18T00:04:17.729Z,53.80
2017-11-18T00:06:45.220Z,50.07
2017-11-18T00:09:12.734Z,50.23
2017-11-18T00:11:40.268Z,49.20
2017-11-18T00:14:07.805Z,48.83
2017-11-18T00:16:36.056Z,53.40
2017-11-18T00:19:03.547Z,48.00
2017-11-18T00:21:31.828Z,49.10
2017-11-18T00:24:00.081Z,57.60
2017-11-18T00:26:27.600Z,46.47
2017-11-18T00:28:55.137Z,51.03
2017-11-18T00:31:22.664Z,50.93
2017-11-18T00:33:50.237Z,69.30
2017-11-18T00:36:17.753Z,66.47
2017-11-18T00:38:45.282Z,75.30
2017-11-18T00:41:13.548Z,72.83
2017-11-18T00:43:41.071Z,76.53
2017-11-18T00:46:08.637Z,71.10
2017-11-18T00:48:36.134Z,86.87
2017-11-18T00:51:03.635Z,97.40
2017-11-18T00:53:31.159Z,76.90
2017-11-18T00:55:58.693Z,89.80
2017-11-18T00:58:26.198Z,90.07
2017-11-18T01:00:53.811Z,86.80
2017-11-18T01:03:21.301Z,70.00
2017-11-18T01:05:48.998Z,116.07
2017-11-18T01:08:17.297Z,78.37
2017-11-18T01:10:44.793Z,90.27
2017-11-18T01:13:12.325Z,92.73
2017-11-18T01:15:39.849Z,82.40
2017-11-18T01:18:07.377Z,78.43
2017-11-18T01:20:34.876Z,77.17
2017-11-18T01:23:02.416Z,82.80
2017-11-18T01:25:29.916Z,87.03
2017-11-18T01:27:57.453Z,82.00
2017-11-18T01:30:24.968Z,81.40
2017-11-18T01:32:52.490Z,89.00
2017-11-18T01:35:19.995Z,97.23
2017-11-18T01:37:47.521Z,99.00
2017-11-18T01:40:15.024Z,155.37
2017-11-18T01:42:42.539Z,117.57
2017-11-18T01:45:10.041Z,112.43
2017-11-18T01:47:37.581Z,97.13
2017-11-18T01:50:05.077Z,110.87
2017-11-18T01:52:32.563Z,127.63
2017-11-18T01:55:00.095Z,90.07
2017-11-18T01:57:28.344Z,98.43
2017-11-18T01:59:55.868Z,93.20
2017-11-18T02:02:35.342Z,75.90
2017-11-18T02:05:02.953Z,97.97
2017-11-18T02:07:30.460Z,71.57
2017-11-18T02:09:57.985Z,67.33
2017-11-18T02:12:25.510Z,72.27
2017-11-18T02:14:53.778Z,61.07
2017-11-18T02:17:21.323Z,57.20
2017-11-18T02:19:48.825Z,60.17
2017-11-18T02:22:17.121Z,53.83
2017-11-18T02:24:45.395Z,59.73
2017-11-18T02:27:13.655Z,68.50
2017-11-18T02:29:41.205Z,78.27
2017-11-18T02:32:08.708Z,69.80
2017-11-18T02:34:36.245Z,72.37
2017-11-18T02:37:03.777Z,63.20
2017-11-18T02:39:31.324Z,82.07
2017-11-18T02:41:58.820Z,61.93
2017-11-18T02:44:26.339Z,60.33
2017-11-18T02:46:53.835Z,57.30
2017-11-18T02:49:21.417Z,74.10
2017-11-18T02:51:48.929Z,55.07
2017-11-18T02:54:16.434Z,66.37
2017-11-18T02:56:43.965Z,64.83
2017-11-18T02:59:11.459Z,58.93
2017-11-18T03:01:38.988Z,62.20
2017-11-18T03:04:06.489Z,60.40
2017-11-18T03:06:34.030Z,64.23
2017-11-18T03:09:01.533Z,60.17
2017-11-18T03:11:29.035Z,65.90
2017-11-18T03:13:56.556Z,58.57
2017-11-18T03:16:24.079Z,62.77
2017-11-18T03:18:51.630Z,52.93
2017-11-18T03:21:19.140Z,66.07
2017-11-18T03:23:46.640Z,55.67
2017-11-18T03:26:15.022Z,58.70
2017-11-18T03:28:42.509Z,66.80
2017-11-18T03:31:10.007Z,53.67
2017-11-18T03:33:37.548Z,62.73
2017-11-18T03:36:05.045Z,69.87
2017-11-18T03:38:32.564Z,64.97
2017-11-18T03:41:00.060Z,59.37
2017-11-18T03:43:27.577Z,56.60
2017-11-18T03:45:55.112Z,68.03
2017-11-18T03:48:22.592Z,57.53
2017-11-18T03:50:50.851Z,59.77
2017-11-18T03:53:19.159Z,61.67
2017-11-18T03:55:46.693Z,72.67
2017-11-18T03:58:14.196Z,67.50
2017-11-18T04:00:47.408Z,62.27
2017-11-18T04:03:14.917Z,67.63
2017-11-18T04:05:42.443Z,59.30
2017-11-18T04:08:09.946Z,58.43
2017-11-18T04:10:38.302Z,61.17
2017-11-18T04:13:05.804Z,54.20
2017-11-18T04:15:34.105Z,63.60
2017-11-18T04:18:01.600Z,59.20
2017-11-18T04:20:29.172Z,58.47
2017-11-18T04:22:56.656Z,61.83
2017-11-18T04:25:24.317Z,59.20
2017-11-18T04:27:51.821Z,62.63
2017-11-18T04:30:19.333Z,68.97
2017-11-18T04:32:46.877Z,58.03
2017-11-18T04:35:14.371Z,54.10
2017-11-18T04:37:42.053Z,61.37
2017-11-18T04:40:10.317Z,67.90
2017-11-18T04:42:37.864Z,59.00
2017-11-18T04:45:05.491Z,64.03
2017-11-18T04:47:33.012Z,64.90
2017-11-18T04:50:00.507Z,64.13
2017-11-18T04:52:28.027Z,54.77
2017-11-18T04:54:55.526Z,66.90
2017-11-18T04:57:23.828Z,59.43
2017-11-18T04:59:51.376Z,64.70
2017-11-18T05:02:19.644Z,64.57
2017-11-18T05:04:47.911Z,57.70
2017-11-18T05:07:15.424Z,81.10
2017-11-18T05:09:42.937Z,61.23
2017-11-18T05:12:10.471Z,74.07
2017-11-18T05:14:38.184Z,64.07
2017-11-18T05:17:06.540Z,68.83
2017-11-18T05:19:34.057Z,56.87
2017-11-18T05:22:01.598Z,55.77
2017-11-18T05:24:29.861Z,67.63
2017-11-18T05:26:57.431Z,71.00
2017-11-18T05:29:25.704Z,72.13
2017-11-18T05:31:53.216Z,47.17
2017-11-18T05:34:20.837Z,68.60
2017-11-18T05:36:48.348Z,63.03
2017-11-18T05:39:15.857Z,70.43
2017-11-18T05:41:43.395Z,63.30
2017-11-18T05:44:10.934Z,74.23
2017-11-18T05:46:38.440Z,69.80
2017-11-18T05:49:05.967Z,74.30
2017-11-18T05:51:33.521Z,68.00
2017-11-18T05:54:01.012Z,74.87
2017-11-18T05:56:28.526Z,68.00
2017-11-18T05:58:56.801Z,77.43
2017-11-18T06:01:25.089Z,60.17
2017-11-18T06:03:53.351Z,59.40
2017-11-18T06:06:20.889Z,65.60
2017-11-18T06:08:49.209Z,68.70
2017-11-18T06:11:17.525Z,46.97
2017-11-18T06:13:45.047Z,60.13
2017-11-18T06:16:13.353Z,65.83
2017-11-18T06:18:40.936Z,67.17
2017-11-18T06:21:08.434Z,73.33
2017-11-18T06:23:35.922Z,60.37
2017-11-18T06:26:04.527Z,55.63
2017-11-18T06:28:32.020Z,45.73
2017-11-18T06:30:59.563Z,47.60
2017-11-18T06:33:27.059Z,51.70
2017-11-18T06:35:54.592Z,52.87
2017-11-18T06:38:22.096Z,46.67
2017-11-18T06:40:49.580Z,51.80
2017-11-18T06:43:17.125Z,51.57
2017-11-18T06:45:44.627Z,49.03
2017-11-18T06:48:12.903Z,44.97
2017-11-18T06:50:41.233Z,57.17
2017-11-18T06:53:08.754Z,61.40
2017-11-18T06:55:36.299Z,45.03
2017-11-18T06:58:03.788Z,46.40
2017-11-18T07:00:31.317Z,43.77
2017-11-18T07:02:59.036Z,46.60
2017-11-18T07:05:26.579Z,48.30
2017-11-18T07:07:54.096Z,46.90
2017-11-18T07:10:21.624Z,46.50
2017-11-18T07:12:49.187Z,48.40
2017-11-18T07:15:16.683Z,47.37
2017-11-18T07:17:44.229Z,42.60
2017-11-18T07:20:11.789Z,48.50
2017-11-18T07:22:39.428Z,39.50
2017-11-18T07:25:06.974Z,32.67
2017-11-18T07:27:35.276Z,34.30
2017-11-18T07:30:02.818Z,42.57
2017-11-18T07:32:31.076Z,50.50
2017-11-18T07:34:58.621Z,41.63
2017-11-18T07:37:26.216Z,40.57
2017-11-18T07:39:53.720Z,43.73
2017-11-18T07:42:21.246Z,37.73
2017-11-18T07:44:49.523Z,44.73
2017-11-18T07:47:17.033Z,42.63
2017-11-18T07:49:44.593Z,40.47
2017-11-18T07:52:12.125Z,42.27
2017-11-18T07:54:40.388Z,41.93
2017-11-18T07:57:07.930Z,39.93
2017-11-18T07:59:35.427Z,44.20
2017-11-18T08:02:03.692Z,40.33
2017-11-18T08:04:31.221Z,43.97
2017-11-18T08:06:58.773Z,42.50
2017-11-18T08:09:26.284Z,36.33
2017-11-18T08:11:53.775Z,40.73
2017-11-18T08:14:22.068Z,37.07
2017-11-18T08:16:49.582Z,33.10
2017-11-18T08:19:17.173Z,34.10
2017-11-18T08:21:44.732Z,40.53
2017-11-18T08:24:12.306Z,35.33
2017-11-18T08:26:40.660Z,37.63
2017-11-18T08:29:08.184Z,38.87
2017-11-18T08:31:35.698Z,41.33
2017-11-18T08:34:04.010Z,37.83
2017-11-18T08:36:36.351Z,35.87
2017-11-18T08:39:04.752Z,37.00
2017-11-18T08:41:33.028Z,34.07
2017-11-18T08:44:01.336Z,34.20
2017-11-18T08:46:28.840Z,33.43
2017-11-18T08:48:56.337Z,29.93
2017-11-18T08:51:23.920Z,33.57
2017-11-18T08:53:51.430Z,30.63
2017-11-18T08:56:18.946Z,39.57
2017-11-18T08:58:46.484Z,32.60
2017-11-18T09:01:14.033Z,34.17
2017-11-18T09:03:41.532Z,31.97
2017-11-18T09:06:09.835Z,31.27
2017-11-18T09:08:37.390Z,28.80
2017-11-18T09:11:04.895Z,29.90
2017-11-18T09:13:32.510Z,29.33
2017-11-18T09:16:00.012Z,35.43
2017-11-18T09:18:27.555Z,30.77
2017-11-18T09:20:55.061Z,28.00
2017-11-18T09:23:22.582Z,32.23
2017-11-18T09:25:50.097Z,31.23
2017-11-18T09:28:17.667Z,29.53
2017-11-18T09:30:45.655Z,26.73
2017-11-18T09:33:13.990Z,29.10
2017-11-18T09:35:41.491Z,26.20
2017-11-18T09:38:08.988Z,26.90
2017-11-18T09:40:36.559Z,36.93
2017-11-18T09:43:04.061Z,24.80
2017-11-18T09:45:31.595Z,22.90
2017-11-18T09:47:59.113Z,27.60
2017-11-18T09:50:26.639Z,29.80
2017-11-18T09:52:54.187Z,26.50
2017-11-18T09:55:21.769Z,27.23
2017-11-18T09:57:49.299Z,25.37
2017-11-18T10:00:16.787Z,29.73
2017-11-18T10:02:44.324Z,27.33
2017-11-18T10:05:12.095Z,28.43
2017-11-18T10:07:39.677Z,27.80
2017-11-18T10:10:07.205Z,22.37
2017-11-18T10:12:34.700Z,21.40
2017-11-18T10:15:02.254Z,24.20
2017-11-18T10:17:29.764Z,20.60
2017-11-18T10:19:57.287Z,20.83
2017-11-18T10:22:24.814Z,20.80
2017-11-18T10:24:53.110Z,19.83
2017-11-18T10:27:21.364Z,18.93
2017-11-18T10:29:48.885Z,14.50
2017-11-18T10:32:16.377Z,20.07
2017-11-18T10:34:43.917Z,20.27
2017-11-18T10:37:11.424Z,14.70
2017-11-18T10:39:38.955Z,14.67
2017-11-18T10:42:06.445Z,14.03
2017-11-18T10:44:33.980Z,15.10
2017-11-18T10:47:01.491Z,15.30
2017-11-18T10:49:30.036Z,11.80
2017-11-18T10:51:57.607Z,15.10
2017-11-18T10:54:25.131Z,12.87
2017-11-18T10:59:19.256Z,10.00
2017-11-18T11:01:47.271Z,13.00
2017-11-18T11:04:15.275Z,11.97
2017-11-18T11:06:43.319Z,10.40
2017-11-18T11:09:11.604Z,11.93
2017-11-18T11:11:39.420Z,12.50
2017-11-18T11:14:06.977Z,14.50
2017-11-18T11:16:34.516Z,13.73
2017-11-18T11:19:02.820Z,11.40
2017-11-18T11:21:30.329Z,9.80
2017-11-18T11:23:57.866Z,10.67
2017-11-18T11:26:25.383Z,9.20
2017-11-18T11:28:53.683Z,9.40
2017-11-18T11:31:21.209Z,9.77
2017-11-18T11:33:48.716Z,10.73
2017-11-18T11:36:16.289Z,6.23
2017-11-18T11:38:43.792Z,9.23
2017-11-18T11:41:11.296Z,6.10
2017-11-18T11:43:38.835Z,6.93
2017-11-18T11:46:07.131Z,4.63
2017-11-18T11:48:35.397Z,8.33
2017-11-18T11:51:02.934Z,8.60
2017-11-18T11:53:30.460Z,7.77
2017-11-18T11:55:58.172Z,9.43
2017-11-18T11:58:25.681Z,8.73
2017-11-18T12:00:53.177Z,8.63
2017-11-18T12:03:20.724Z,9.30
2017-11-18T12:05:48.252Z,8.53
2017-11-18T12:08:16.515Z,7.87
2017-11-18T12:10:44.054Z,9.03
2017-11-18T12:13:11.596Z,10.60
2017-11-18T12:15:39.084Z,8.00
2017-11-18T12:18:06.590Z,10.47
2017-11-18T12:20:34.902Z,7.00
2017-11-18T12:23:02.525Z,7.40
2017-11-18T12:25:30.064Z,7.77
2017-11-18T12:27:57.557Z,7.90
2017-11-18T12:30:25.845Z,8.73
2017-11-18T12:32:54.161Z,9.10
2017-11-18T12:35:21.707Z,9.23
2017-11-18T12:37:49.234Z,5.90
2017-11-18T12:40:16.770Z,8.67
2017-11-18T12:42:44.308Z,9.50
2017-11-18T12:45:11.816Z,7.20
2017-11-18T12:47:39.320Z,8.30
2017-11-18T12:50:06.863Z,10.53
2017-11-18T12:52:34.392Z,8.93
2017-11-18T12:55:01.922Z,16.30
2017-11-18T12:57:29.736Z,11.97
2017-11-18T12:59:57.264Z,10.97
2017-11-18T13:02:24.765Z,8.77
2017-11-18T13:04:52.292Z,8.83
2017-11-18T13:07:19.794Z,7.40
2017-11-18T13:09:47.322Z,7.93
2017-11-18T13:12:14.811Z,9.37
2017-11-18T13:14:42.352Z,9.10
2017-11-18T13:17:09.837Z,12.17
2017-11-18T13:19:37.365Z,8.10
2017-11-18T13:22:04.851Z,7.90
2017-11-18T13:24:32.630Z,8.30
2017-11-18T13:27:00.195Z,8.63
2017-11-18T13:29:27.678Z,7.90
2017-11-18T13:31:55.293Z,11.03
2017-11-18T13:34:22.840Z,6.20
2017-11-18T13:36:50.327Z,7.70
2017-11-18T13:39:17.876Z,8.57
2017-11-18T13:41:45.362Z,7.60
2017-11-18T13:44:12.852Z,7.43
2017-11-18T13:46:40.424Z,8.17
2017-11-18T13:49:07.928Z,7.13
2017-11-18T13:51:35.412Z,9.73
2017-11-18T13:54:02.929Z,6.50
2017-11-18T13:56:31.199Z,7.03
2017-11-18T13:58:58.730Z,6.70
2017-11-18T14:01:26.242Z,8.57
2017-11-18T14:03:54.535Z,8.07
2017-11-18T14:06:22.045Z,7.13
2017-11-18T14:08:49.569Z,6.33
2017-11-18T14:11:17.091Z,12.20
2017-11-18T14:13:44.586Z,8.20
2017-11-18T14:16:12.128Z,13.57
2017-11-18T14:18:40.396Z,10.10
2017-11-18T14:21:07.931Z,7.17
2017-11-18T14:23:35.456Z,9.80
2017-11-18T14:26:03.752Z,8.80
2017-11-18T14:28:31.258Z,9.60
2017-11-18T14:30:58.765Z,7.37
2017-11-18T14:33:26.263Z,6.63
2017-11-18T14:35:53.815Z,7.90
2017-11-18T14:38:21.302Z,7.70
2017-11-18T14:40:48.837Z,8.43
2017-11-18T14:43:16.328Z,8.57
2017-11-18T14:45:43.828Z,8.10
2017-11-18T14:48:11.373Z,9.67
2017-11-18T14:50:38.882Z,7.57
2017-11-18T14:53:06.422Z,9.03
2017-11-18T14:55:34.671Z,7.60
2017-11-18T14:58:02.896Z,9.23
2017-11-18T15:00:30.428Z,14.53
2017-11-18T15:02:58.168Z,8.37
2017-11-18T15:05:26.469Z,9.40
2017-11-18T15:07:54.035Z,10.00
2017-11-18T15:10:21.533Z,9.77
2017-11-18T15:12:49.792Z,8.13
2017-11-18T15:15:32.196Z,7.23
2017-11-18T15:18:05.253Z,10.57
2017-11-18T15:20:39.229Z,8.10
2017-11-18T15:26:16.034Z,9.50
2017-11-18T15:28:49.414Z,10.80
2017-11-18T15:31:35.752Z,10.23
2017-11-18T15:34:03.780Z,13.93
2017-11-18T15:36:34.721Z,12.70
2017-11-18T15:39:03.852Z,10.60
2017-11-18T15:41:31.357Z,8.67
2017-11-18T15:44:12.412Z,10.57
2017-11-18T15:49:45.935Z,10.60
2017-11-18T15:52:13.733Z,16.00
2017-11-18T15:54:41.350Z,14.30
2017-11-18T15:57:09.092Z,15.87
2017-11-18T15:59:36.834Z,13.70
2017-11-18T16:02:04.732Z,12.10
2017-11-18T16:04:32.873Z,14.27
2017-11-18T16:07:00.933Z,16.07
2017-11-18T16:09:29.566Z,13.73
2017-11-18T16:11:57.484Z,14.60
2017-11-18T16:14:27.145Z,16.20
2017-11-18T16:16:55.105Z,11.77
2017-11-18T16:19:23.314Z,13.47
2017-11-18T16:21:52.199Z,13.30
2017-11-18T16:24:19.965Z,12.77
2017-11-18T16:26:47.927Z,13.20
2017-11-18T16:29:16.114Z,8.53
2017-11-18T16:31:43.984Z,10.97
2017-11-18T16:34:11.612Z,9.90
2017-11-18T16:36:41.061Z,12.27
2017-11-18T16:39:08.910Z,8.43
2017-11-18T16:41:36.806Z,10.63
2017-11-18T16:44:04.696Z,11.90
2017-11-18T16:46:32.864Z,10.13
2017-11-18T16:49:00.636Z,12.80
2017-11-18T16:51:28.989Z,11.80
2017-11-18T16:53:57.072Z,13.30
2017-11-18T16:56:25.051Z,9.33
2017-11-18T16:58:52.930Z,9.40
2017-11-18T17:01:20.963Z,12.87
2017-11-18T17:03:50.018Z,10.00
2017-11-18T17:06:17.946Z,10.13
2017-11-18T17:08:46.040Z,7.43
2017-11-18T17:11:14.063Z,6.90
2017-11-18T17:13:41.806Z,9.17
2017-11-18T17:16:09.644Z,6.40
2017-11-18T17:18:38.002Z,7.90
2017-11-18T17:21:06.598Z,9.00
2017-11-18T17:23:34.333Z,7.47
2017-11-18T17:26:02.289Z,9.50
2017-11-18T17:28:30.415Z,13.50
2017-11-18T17:30:58.639Z,6.60
2017-11-18T17:33:26.586Z,10.03
2017-11-18T17:35:55.233Z,10.90
2017-11-18T17:38:23.878Z,8.63
2017-11-18T17:40:51.664Z,10.63
2017-11-18T17:43:19.670Z,11.33
2017-11-18T17:45:47.594Z,9.93
2017-11-18T17:48:15.376Z,9.90
2017-11-18T17:50:44.333Z,15.83
2017-11-18T17:53:12.235Z,8.50
2017-11-18T17:55:40.010Z,12.13
2017-11-18T17:58:07.798Z,11.53
2017-11-18T18:00:35.647Z,12.93
2017-11-18T18:03:03.688Z,14.30
2017-11-18T18:05:32.213Z,9.73
2017-11-18T18:08:00.308Z,12.83
2017-11-18T18:10:28.467Z,10.70
2017-11-18T18:12:56.202Z,10.90
2017-11-18T18:15:24.213Z,13.07
2017-11-18T18:17:52.289Z,9.23
2017-11-18T18:20:20.101Z,12.77
2017-11-18T18:22:48.528Z,12.03
2017-11-18T18:25:16.721Z,16.10
2017-11-18T18:27:45.200Z,12.83
2017-11-18T18:30:14.306Z,14.73
2017-11-18T18:32:42.463Z,18.90
2017-11-18T18:35:11.230Z,13.30
2017-11-18T18:37:38.943Z,10.00
2017-11-18T18:40:06.816Z,13.17
2017-11-18T18:42:35.157Z,9.37
2017-11-18T18:45:04.005Z,9.40
2017-11-18T18:47:32.205Z,11.00
2017-11-18T18:50:00.898Z,11.30
2017-11-18T18:52:28.761Z,14.53
2017-11-18T18:54:56.823Z,12.60
2017-11-18T18:57:24.680Z,14.43
2017-11-18T18:59:52.662Z,11.00
2017-11-18T19:02:20.628Z,10.93
2017-11-18T19:04:48.474Z,7.83
2017-11-18T19:07:16.359Z,18.27
2017-11-18T19:09:44.323Z,12.90
2017-11-18T19:12:13.154Z,13.10
2017-11-18T19:14:40.959Z,8.13
2017-11-18T19:17:09.619Z,13.70
2017-11-18T19:19:37.328Z,13.03
2017-11-18T19:22:05.308Z,8.87
2017-11-18T19:24:33.094Z,9.83
2017-11-18T19:27:00.804Z,10.93
2017-11-18T19:29:28.879Z,11.77
2017-11-18T19:31:56.977Z,11.07
2017-11-18T19:34:25.717Z,10.83
2017-11-18T19:36:53.447Z,11.50
2017-11-18T19:39:22.108Z,10.07
2017-11-18T19:41:50.046Z,10.90
2017-11-18T19:44:17.800Z,20.20
2017-11-18T19:46:45.975Z,9.60
2017-11-18T19:49:13.854Z,10.23
2017-11-18T19:51:41.619Z,10.80
2017-11-18T19:54:09.353Z,9.73
2017-11-18T19:56:38.199Z,13.00
2017-11-18T19:59:05.819Z,10.80
2017-11-18T20:01:34.437Z,10.10
2017-11-18T20:04:02.488Z,7.73
2017-11-18T20:06:30.503Z,10.17
2017-11-18T20:08:58.574Z,8.87
2017-11-18T20:11:26.433Z,12.40
2017-11-18T20:13:54.622Z,21.27
2017-11-18T20:16:23.472Z,10.10
2017-11-18T20:18:52.176Z,10.00
2017-11-18T20:21:21.007Z,8.43
2017-11-18T20:23:48.908Z,7.80
2017-11-18T20:26:16.776Z,9.83
2017-11-18T20:28:44.592Z,9.50
2017-11-18T20:31:12.467Z,8.17
2017-11-18T20:33:40.352Z,10.83
2017-11-18T20:36:08.345Z,11.33
2017-11-18T20:38:36.243Z,6.90
2017-11-18T20:41:04.289Z,5.70
2017-11-18T20:43:32.349Z,6.70
2017-11-18T20:46:00.228Z,10.27
2017-11-18T20:48:27.884Z,6.77
2017-11-18T20:50:55.829Z,9.43
2017-11-18T20:53:24.457Z,7.43
2017-11-18T20:55:52.205Z,8.00
2017-11-18T20:58:20.249Z,7.80
2017-11-18T21:00:48.772Z,13.20
2017-11-18T21:03:16.987Z,13.60
2017-11-18T21:05:44.725Z,18.47
2017-11-18T21:08:12.867Z,23.80
2017-11-18T21:10:41.627Z,10.67
2017-11-18T21:13:09.396Z,7.00
2017-11-18T21:15:37.458Z,10.77
2017-11-18T21:18:05.424Z,12.97
2017-11-18T21:20:33.187Z,7.67
2017-11-18T21:23:01.471Z,11.50
2017-11-18T21:25:29.850Z,8.83
2017-11-18T21:27:57.930Z,9.30
2017-11-18T21:30:25.753Z,8.83
2017-11-18T21:32:54.940Z,7.60
2017-11-18T21:35:22.761Z,8.20
2017-11-18T21:37:50.613Z,9.87
2017-11-18T21:40:18.498Z,9.70
2017-11-18T21:42:48.256Z,8.33
2017-11-18T21:45:16.312Z,7.67
2017-11-18T21:47:44.058Z,10.07
2017-11-18T21:50:12.192Z,17.50
2017-11-18T21:52:39.977Z,15.73
2017-11-18T21:55:08.564Z,9.90
2017-11-18T21:57:36.613Z,8.37
2017-11-18T22:00:05.129Z,11.93
2017-11-18T22:02:33.808Z,7.73
2017-11-18T22:05:02.651Z,7.17
2017-11-18T22:07:30.718Z,12.87
2017-11-18T22:09:58.711Z,14.33
2017-11-18T22:12:26.672Z,11.60
2017-11-18T22:14:54.583Z,12.27
2017-11-18T22:17:22.709Z,10.50
2017-11-18T22:19:50.555Z,7.87
2017-11-18T22:22:18.676Z,13.23
2017-11-18T22:24:46.819Z,10.77
2017-11-18T22:27:14.926Z,9.83
2017-11-18T22:29:43.750Z,9.40
2017-11-18T22:32:11.833Z,15.77
2017-11-18T22:34:39.870Z,9.83
2017-11-18T22:37:07.606Z,9.43
2017-11-18T22:39:35.552Z,13.40
2017-11-18T22:42:04.012Z,10.17
2017-11-18T22:44:32.185Z,11.00
2017-11-18T22:46:59.775Z,9.63
2017-11-18T22:49:27.521Z,8.97
2017-11-18T22:51:55.272Z,14.50
2017-11-18T22:54:23.160Z,14.23
2017-11-18T22:56:51.142Z,8.80
2017-11-18T22:59:18.995Z,8.20
2017-11-18T23:01:46.725Z,6.27
2017-11-18T23:04:15.253Z,9.57
2017-11-18T23:06:43.120Z,8.20
2017-11-18T23:09:11.329Z,13.40
2017-11-18T23:11:39.458Z,6.40
2017-11-18T23:14:07.622Z,12.27
2017-11-18T23:16:36.258Z,10.90
2017-11-18T23:19:04.434Z,8.47
2017-11-18T23:21:33.216Z,10.30
2017-11-18T23:24:01.237Z,11.33
2017-11-18T23:26:30.026Z,8.50
2017-11-18T23:28:57.752Z,6.30
2017-11-18T23:31:25.825Z,8.70
2017-11-18T23:33:53.809Z,9.13
2017-11-18T23:36:21.772Z,9.90
2017-11-18T23:38:49.959Z,9.80
2017-11-18T23:41:18.131Z,9.17
2017-11-18T23:43:46.164Z,8.37
2017-11-18T23:46:14.585Z,16.33
2017-11-18T23:48:42.765Z,8.40
2017-11-18T23:51:10.707Z,10.37
2017-11-18T23:53:39.576Z,10.03
2017-11-18T23:56:07.365Z,10.70
2017-11-18T23:58:35.122Z,13.50
